Time;durP1;ratioP1;P1;durP2;ratioP2;P2;SDS_P1;SDS_P2;PMS_P1;PMS_P2;Temp;Humidity;BMP_temperature;BMP_pressure;BME280_temperature;BME280_humidity;BME280_pressure;Samples;Min_cycle;Max_cycle;Signal;HPM_P1;HPM_P2
2023/01/24 00:02:57;;;;;;;2.95;1.85;;;;;;;3.17;99.69;101261.03;6297094;28;20036;-71
2023/01/24 00:05:58;;;;;;;1.73;1.02;;;;;;;2.98;100.00;101248.34;6295765;28;20048;-77
2023/01/24 00:08:59;;;;;;;2.78;2.00;;;;;;;2.89;100.00;101265.66;6295332;28;20476;-72
2023/01/24 00:12:00;;;;;;;1.90;1.00;;;;;;;2.99;100.00;101262.09;6295448;28;20037;-77
2023/01/24 00:15:01;;;;;;;3.80;1.85;;;;;;;2.92;100.00;101239.81;6296851;28;20173;-72
2023/01/24 00:18:02;;;;;;;4.97;1.90;;;;;;;2.91;100.00;101259.59;6296725;28;20105;-72
2023/01/24 00:21:11;;;;;;;2.50;1.55;;;;;;;2.97;100.00;101262.09;6302284;28;20418;-72
2023/01/24 00:24:12;;;;;;;2.83;2.10;;;;;;;2.98;99.86;101257.81;6320930;28;20064;-77
2023/01/24 00:27:13;;;;;;;6.28;1.98;;;;;;;2.90;100.00;101262.19;6320843;28;20050;-71
2023/01/24 00:30:14;;;;;;;2.63;1.98;;;;;;;2.95;99.74;101265.59;6320885;28;20051;-77
2023/01/24 00:33:15;;;;;;;2.45;1.65;;;;;;;2.88;100.00;101267.34;6320669;28;20044;-71
2023/01/24 00:36:15;;;;;;;2.08;1.42;;;;;;;2.93;99.88;101269.91;6321034;28;20097;-78
2023/01/24 00:39:16;;;;;;;1.50;1.15;;;;;;;2.91;99.06;101271.63;6320693;28;20427;-78
2023/01/24 00:42:20;;;;;;;1.63;1.30;;;;;;;2.92;99.01;101273.34;6320596;28;20422;-77
2023/01/24 00:45:21;;;;;;;2.08;1.42;;;;;;;2.97;98.63;101275.00;6325445;28;20392;-77
2023/01/24 00:48:22;;;;;;;3.17;2.00;;;;;;;2.83;99.82;101272.56;6325038;28;20063;-78
2023/01/24 00:51:23;;;;;;;4.50;1.70;;;;;;;2.85;99.84;101271.69;6325078;28;20069;-77
2023/01/24 00:54:23;;;;;;;1.92;1.45;;;;;;;2.99;98.61;101275.00;6326207;28;20044;-77
2023/01/24 00:57:24;;;;;;;1.73;1.52;;;;;;;2.82;99.60;101277.72;6325857;28;20048;-72
2023/01/24 01:00:26;;;;;;;3.03;1.60;;;;;;;2.81;99.47;101273.44;6326093;28;20044;-72
2023/01/24 01:03:28;;;;;;;1.77;1.42;;;;;;;2.88;99.13;101277.66;6324468;28;20040;-72
2023/01/24 01:06:28;;;;;;;2.15;1.73;;;;;;;2.79;98.83;101263.13;6324323;28;20093;-72
2023/01/24 01:09:29;;;;;;;1.88;1.52;;;;;;;2.88;99.00;101274.22;6324445;28;20043;-77
2023/01/24 01:12:30;;;;;;;1.73;1.58;;;;;;;2.73;98.89;101247.72;6324561;28;20052;-77
2023/01/24 01:15:33;;;;;;;2.55;1.75;;;;;;;2.83;98.83;101272.56;6325723;28;20477;-77
2023/01/24 01:18:35;;;;;;;2.28;1.63;;;;;;;2.83;98.12;101267.41;6324456;28;20051;-77
2023/01/24 01:21:36;;;;;;;2.50;1.13;;;;;;;2.70;100.00;101270.09;6324179;28;20055;-71
2023/01/24 01:24:37;;;;;;;3.30;1.65;;;;;;;2.72;98.69;101270.94;6324313;28;20040;-72
2023/01/24 01:27:38;;;;;;;2.42;1.33;;;;;;;2.80;98.04;101280.31;6324031;28;20052;-77
2023/01/24 01:30:39;;;;;;;3.67;1.10;;;;;;;2.75;98.64;101284.66;6324106;28;20504;-77
2023/01/24 01:33:40;;;;;;;3.03;1.40;;;;;;;2.77;98.43;101284.66;6323978;28;20073;-78
2023/01/24 01:36:40;;;;;;;2.28;0.90;;;;;;;2.79;98.69;101288.91;6323861;28;20044;-72
2023/01/24 01:39:41;;;;;;;6.05;2.63;;;;;;;2.86;97.72;101288.84;6324980;28;20051;-72
2023/01/24 01:42:45;;;;;;;2.92;1.65;;;;;;;2.88;97.77;101300.00;6324639;28;20450;-71
2023/01/24 01:45:48;;;;;;;2.00;0.93;;;;;;;2.95;97.06;101299.94;6324764;28;20072;-77
2023/01/24 01:48:54;;;;;;;3.88;2.08;;;;;;;2.90;96.73;101293.13;6324583;28;20404;-77
2023/01/24 01:52:04;;;;;;;7.18;1.27;;;;;;;2.93;97.18;101298.25;6323334;28;20048;-72
2023/01/24 01:55:11;;;;;;;3.75;1.70;;;;;;;2.88;96.75;101295.69;6323324;28;20052;-77
2023/01/24 01:58:12;;;;;;;1.58;1.35;;;;;;;2.89;97.92;101294.84;6323290;28;20052;-73
2023/01/24 02:01:13;;;;;;;4.13;1.75;;;;;;;2.83;97.54;101302.63;6323039;28;20062;-73
2023/01/24 02:04:20;;;;;;;2.63;1.63;;;;;;;2.80;96.98;101293.22;6323154;28;20036;-72
2023/01/24 02:07:31;;;;;;;1.30;1.02;;;;;;;2.96;96.59;101303.38;6324441;28;20441;-72
2023/01/24 02:16:02;;;;;;;4.43;1.55;;;;;;;2.80;96.98;101293.22;6324038;28;20040;-73
2023/01/24 02:17:19;;;;;;;2.92;1.67;;;;;;;2.87;97.16;101299.16;6323931;28;20048;-72
2023/01/24 02:20:32;;;;;;;2.22;1.50;;;;;;;2.83;96.60;101295.75;6322664;28;20055;-78
2023/01/24 02:23:57;;;;;;;2.03;0.95;;;;;;;2.92;95.54;101292.22;6322432;28;20036;-77
2023/01/24 02:26:59;;;;;;;1.25;1.10;;;;;;;2.91;96.78;101287.94;6323782;28;20040;-71
2023/01/24 02:30:00;;;;;;;2.60;1.60;;;;;;;2.87;96.41;101282.84;6322387;28;20044;-77
2023/01/24 02:33:12;;;;;;;1.98;1.55;;;;;;;2.91;96.32;101294.84;6322691;28;20040;-78
2023/01/24 02:36:19;;;;;;;;;;;;;;;2.82;96.77;101286.31;6324112;28;20044;-78
2023/01/24 02:39:30;;;;;;;1.55;1.20;;;;;;;2.77;97.17;101285.50;6322586;28;20271;-77
2023/01/24 02:42:37;;;;;;;2.15;1.90;;;;;;;2.74;96.98;101282.97;6322384;28;20047;-78
2023/01/24 02:45:38;;;;;;;2.22;2.03;;;;;;;2.75;97.45;101286.38;6322284;28;20059;-72
2023/01/24 02:48:39;;;;;;;1.80;1.00;;;;;;;2.62;97.93;101280.50;6323093;28;20056;-71
2023/01/24 02:54:59;;;;;;;7.97;1.65;;;;;;;2.59;98.22;101283.06;6322837;28;20483;-78
2023/01/24 02:58:06;;;;;;;3.25;1.58;;;;;;;2.68;97.86;101280.44;6322752;28;20044;-72
2023/01/24 03:01:07;;;;;;;2.90;1.60;;;;;;;2.68;97.78;101282.13;6321802;28;20043;-72
2023/01/24 03:04:10;;;;;;;1.63;1.38;;;;;;;2.61;98.35;101287.38;6321647;28;20059;-72
2023/01/24 03:07:11;;;;;;;3.13;1.60;;;;;;;2.71;98.24;101282.97;6322444;28;20036;-72
2023/01/24 03:10:18;;;;;;;1.30;1.20;;;;;;;2.67;97.59;101286.44;6321838;28;20046;-78
2023/01/24 03:36:37;;;;;;;1.23;0.80;;;;;;;2.33;100.00;101297.03;6322179;28;20036;-77
2023/01/24 03:39:58;;;;;;;3.70;1.58;;;;;;;2.38;100.00;101297.84;6322416;28;20051;-77
2023/01/24 03:42:59;;;;;;;1.05;0.82;;;;;;;2.39;100.00;101309.03;6321226;28;20105;-72
2023/01/24 03:46:00;;;;;;;2.20;1.23;;;;;;;2.24;100.00;101299.66;6321199;28;20044;-77
2023/01/24 03:49:01;;;;;;;4.55;1.85;;;;;;;2.31;100.00;101301.34;6321159;28;20040;-72
2023/01/24 03:55:21;;;;;;;1.83;1.00;;;;;;;2.14;100.00;101305.72;6321667;28;20132;-78
2023/01/24 03:58:24;;;;;;;2.80;1.88;;;;;;;2.39;100.00;101306.44;6320735;28;20073;-71
2023/01/24 04:01:25;;;;;;;1.73;1.05;;;;;;;2.42;100.00;101301.25;6321126;28;20509;-78
2023/01/24 04:05:12;;;;;;;0.90;0.90;;;;;;;2.36;100.00;101309.88;6322282;28;20044;-72
2023/01/24 04:07:47;;;;;;;4.97;2.40;;;;;;;2.52;100.00;101302.91;6321522;28;20264;-72
2023/01/24 04:10:48;;;;;;;5.57;3.00;;;;;;;2.44;100.00;101301.25;6322177;28;20109;-77
2023/01/24 04:13:51;;;;;;;6.03;1.33;;;;;;;2.37;100.00;101311.59;6320835;28;20476;-72
2023/01/24 04:16:51;;;;;;;11.55;2.83;;;;;;;2.40;100.00;101306.41;6320603;28;20044;-72
2023/01/24 04:19:52;;;;;;;1.58;1.25;;;;;;;2.42;100.00;101304.69;6323900;28;20040;-77
2023/01/24 04:22:54;;;;;;;3.20;1.75;;;;;;;2.40;100.00;101308.13;6325833;28;20484;-78
2023/01/24 04:26:00;;;;;;;1.88;1.35;;;;;;;2.43;100.00;101308.13;6326760;28;20752;-77
2023/01/24 04:29:03;;;;;;;3.05;1.88;;;;;;;2.45;100.00;101303.81;6326862;28;20043;-78
2023/01/24 04:32:04;;;;;;;1.15;1.05;;;;;;;2.38;100.00;101309.88;6326944;28;20063;-77
2023/01/24 04:35:05;;;;;;;5.75;1.30;;;;;;;2.38;100.00;101310.72;6326648;28;20452;-77
2023/01/24 04:38:07;;;;;;;2.30;1.70;;;;;;;2.36;100.00;101315.03;6325402;28;20036;-77
2023/01/24 04:41:12;;;;;;;2.30;1.75;;;;;;;2.47;100.00;101319.25;6326482;28;20056;-78
2023/01/24 04:44:12;;;;;;;5.53;2.35;;;;;;;2.38;100.00;101312.44;6326154;28;20044;-72
2023/01/24 04:47:13;;;;;;;4.47;1.88;;;;;;;2.48;100.00;101316.66;6324682;28;20056;-72
2023/01/24 04:50:15;;;;;;;9.05;1.75;;;;;;;2.34;100.00;101316.75;6324500;28;20067;-75
2023/01/24 04:53:16;;;;;;;1.77;1.67;;;;;;;2.40;100.00;101315.88;6326046;28;20070;-78
2023/01/24 04:56:17;;;;;;;4.07;2.15;;;;;;;2.32;100.00;101315.06;6324569;28;20468;-72
2023/01/24 04:59:17;;;;;;;3.78;1.52;;;;;;;2.39;100.00;101325.31;6325997;28;20101;-77
2023/01/24 05:02:19;;;;;;;2.75;1.55;;;;;;;2.30;100.00;101321.94;6325303;28;20036;-78
2023/01/24 05:05:19;;;;;;;2.20;1.38;;;;;;;2.30;100.00;101324.53;6325276;28;20090;-78
2023/01/24 05:08:26;;;;;;;2.38;1.63;;;;;;;2.21;100.00;101323.72;6324044;28;20048;-77
2023/01/24 05:11:27;;;;;;;6.72;1.85;;;;;;;2.20;100.00;101319.44;6325197;28;20051;-77
2023/01/24 05:14:28;;;;;;;2.70;1.27;;;;;;;2.26;100.00;101331.41;6323675;28;20069;-78
2023/01/24 05:17:29;;;;;;;1.60;1.15;;;;;;;2.07;100.00;101335.81;6324853;28;20044;-71
2023/01/24 05:20:30;;;;;;;2.03;1.67;;;;;;;2.05;100.00;101328.97;6324586;28;20067;-78
2023/01/24 05:23:31;;;;;;;4.53;1.95;;;;;;;1.94;100.00;101331.59;6324628;28;20036;-72
2023/01/24 05:26:31;;;;;;;1.75;1.45;;;;;;;2.06;100.00;101330.66;6324863;28;20495;-72
2023/01/24 05:29:32;;;;;;;3.13;1.70;;;;;;;2.13;100.00;101338.34;6322868;28;20040;-77
2023/01/24 05:32:33;;;;;;;4.13;2.38;;;;;;;1.99;100.00;101340.16;6323582;28;20039;-71
2023/01/24 05:35:34;;;;;;;3.42;2.20;;;;;;;2.02;100.00;101335.00;6324413;28;20040;-77
2023/01/24 05:38:34;;;;;;;5.03;2.25;;;;;;;1.92;100.00;101344.47;6323850;28;20463;-77
2023/01/24 05:41:38;;;;;;;3.10;1.48;;;;;;;1.90;100.00;101340.22;6323348;28;20476;-77
2023/01/24 05:44:38;;;;;;;3.30;1.70;;;;;;;2.08;100.00;101340.13;6324521;28;20036;-77
2023/01/24 05:47:39;;;;;;;2.08;1.48;;;;;;;2.15;100.00;101346.94;6324221;28;20131;-72
2023/01/24 05:50:41;;;;;;;3.03;1.52;;;;;;;2.11;100.00;101339.25;6323736;28;20101;-71
2023/01/24 05:53:43;;;;;;;5.45;2.10;;;;;;;2.19;100.00;101351.19;6323591;28;20037;-78
2023/01/24 05:56:44;;;;;;;3.13;1.42;;;;;;;2.14;100.00;101347.81;6323462;28;20036;-77
2023/01/24 05:59:45;;;;;;;2.10;1.58;;;;;;;2.17;100.00;101349.50;6323414;28;20036;-77
2023/01/24 06:02:46;;;;;;;4.60;2.25;;;;;;;2.11;100.00;101352.97;6323119;28;20040;-71
2023/01/24 06:05:52;;;;;;;1.70;1.35;;;;;;;2.17;100.00;101355.50;6322671;28;20462;-71
2023/01/24 06:08:53;;;;;;;5.35;1.50;;;;;;;2.17;100.00;101359.81;6322709;28;20040;-77
2023/01/24 06:11:57;;;;;;;2.88;1.83;;;;;;;2.03;100.00;101362.44;6322941;28;20040;-73
2023/01/24 06:14:57;;;;;;;3.22;1.95;;;;;;;2.06;100.00;101367.59;6322992;28;20048;-73
2023/01/24 06:17:58;;;;;;;2.25;1.45;;;;;;;2.11;100.00;101370.97;6322715;28;20107;-72
2023/01/24 06:21:26;;;;;;;2.35;1.92;;;;;;;2.14;100.00;101373.56;6323264;28;20040;-77
2023/01/24 06:24:27;;;;;;;2.35;1.58;;;;;;;2.14;100.00;101373.56;6323175;28;20036;-77
2023/01/24 06:27:28;;;;;;;2.97;2.33;;;;;;;2.14;100.00;101370.09;6323013;28;20098;-77
2023/01/24 06:30:32;;;;;;;2.10;1.67;;;;;;;2.20;100.00;101373.53;6322019;28;20476;-71
2023/01/24 06:33:42;;;;;;;2.10;1.27;;;;;;;2.07;100.00;101374.44;6322904;28;20036;-77
2023/01/24 06:37:01;;;;;;;2.40;1.70;;;;;;;2.10;100.00;101387.31;6322705;28;20039;-77
2023/01/24 06:40:08;;;;;;;1.63;1.27;;;;;;;2.11;100.00;101381.28;6322725;28;20097;-71
2023/01/24 06:43:09;;;;;;;4.85;2.10;;;;;;;2.11;100.00;101383.84;6320850;28;20040;-71
2023/01/24 06:46:12;;;;;;;4.05;1.85;;;;;;;2.21;100.00;101384.69;6321312;28;20076;-77
2023/01/24 06:49:12;;;;;;;;;;;;;;;2.23;100.00;101388.09;6321784;28;20055;-77
2023/01/24 06:52:15;;;;;;;3.80;1.63;;;;;;;2.26;100.00;101389.78;6321284;28;19951;-77
2023/01/24 06:55:16;;;;;;;2.75;1.55;;;;;;;2.27;100.00;101388.94;6321178;28;20044;-72
2023/01/24 06:58:17;;;;;;;2.92;1.73;;;;;;;2.45;100.00;101385.38;6321084;28;20032;-72
2023/01/24 07:01:18;;;;;;;5.18;2.30;;;;;;;2.46;100.00;101384.53;6322162;28;20066;-72
2023/01/24 07:04:19;;;;;;;1.73;1.48;;;;;;;2.38;100.00;101385.41;6322293;28;20054;-77
2023/01/24 07:07:20;;;;;;;2.67;1.48;;;;;;;2.62;100.00;101391.31;6320944;28;20052;-77
2023/01/24 07:10:23;;;;;;;3.17;1.75;;;;;;;2.60;100.00;101385.31;6322220;28;20131;-77
2023/01/24 07:13:25;;;;;;;2.78;1.40;;;;;;;2.64;100.00;101392.16;6320950;28;20071;-77
2023/01/24 07:16:26;;;;;;;4.97;1.93;;;;;;;2.97;100.00;101401.34;6322239;28;20044;-77
2023/01/24 07:19:27;;;;;;;3.28;1.92;;;;;;;3.11;100.00;101408.97;6321885;28;20395;-72
2023/01/24 07:22:28;;;;;;;1.60;1.35;;;;;;;3.31;100.00;101407.94;6320684;28;20036;-72
2023/01/24 07:25:29;;;;;;;2.35;1.50;;;;;;;3.49;100.00;101409.50;6320696;28;20064;-77
2023/01/24 07:28:30;;;;;;;3.13;1.53;;;;;;;3.52;99.96;101409.44;6320607;28;20115;-71
2023/01/24 07:31:31;;;;;;;1.58;1.45;;;;;;;3.78;97.42;101420.34;6321763;28;20283;-73
2023/01/24 07:34:32;;;;;;;1.50;1.20;;;;;;;3.92;95.67;101412.44;6321757;28;20040;-77
2023/01/24 07:37:33;;;;;;;3.05;1.48;;;;;;;3.98;95.31;101414.97;6321711;28;20052;-71
2023/01/24 07:40:35;;;;;;;1.52;1.30;;;;;;;4.10;95.88;101413.97;6321660;28;20040;-71
2023/01/24 07:43:36;;;;;;;1.20;0.85;;;;;;;4.35;93.59;101423.97;6320515;28;20036;-77
2023/01/24 07:46:39;;;;;;;3.50;1.52;;;;;;;4.53;91.95;101422.84;6320128;28;20060;-77
2023/01/24 07:49:40;;;;;;;2.08;1.58;;;;;;;4.62;90.63;101413.25;6320392;28;20407;-77
2023/01/24 07:52:40;;;;;;;2.17;1.58;;;;;;;4.81;89.92;101420.72;6321559;28;20036;-77
2023/01/24 07:55:41;;;;;;;11.43;2.47;;;;;;;4.87;89.45;101423.22;6325515;28;20403;-77
2023/01/24 07:58:42;;;;;;;2.97;1.80;;;;;;;4.81;88.65;101413.81;6325422;28;20450;-77
2023/01/24 08:01:43;;;;;;;1.13;1.05;;;;;;;5.18;87.22;101423.56;6325371;28;20119;-72
2023/01/24 08:04:44;;;;;;;3.30;1.80;;;;;;;5.30;86.69;101417.34;6326470;28;20403;-72
2023/01/24 08:07:45;;;;;;;2.15;1.55;;;;;;;5.21;85.58;101420.94;6325156;28;20121;-71
2023/01/24 08:10:45;;;;;;;4.22;1.85;;;;;;;5.38;86.12;101415.47;6325358;28;20036;-77
2023/01/24 08:13:46;;;;;;;3.72;2.08;;;;;;;5.70;85.97;101423.53;6326284;28;20068;-71
2023/01/24 08:16:50;;;;;;;6.22;1.90;;;;;;;5.83;83.42;101420.69;6324915;28;20047;-77
2023/01/24 08:19:51;;;;;;;3.60;1.73;;;;;;;5.85;83.96;101413.72;6324859;28;20122;-72
2023/01/24 08:22:55;;;;;;;4.60;1.35;;;;;;;5.80;84.06;101414.69;6324926;28;20036;-77
2023/01/24 08:26:03;;;;;;;2.03;1.50;;;;;;;5.62;83.34;101421.06;6325007;28;20514;-73
2023/01/24 08:29:03;;;;;;;4.28;1.58;;;;;;;5.84;83.52;101426.72;6325109;28;20047;-77
2023/01/24 08:32:04;;;;;;;2.58;1.70;;;;;;;6.02;82.57;101428.97;6325857;28;20044;-77
2023/01/24 08:35:05;;;;;;;2.75;1.60;;;;;;;5.90;82.81;101436.09;6324586;28;20464;-72
2023/01/24 08:38:06;;;;;;;2.80;1.92;;;;;;;6.00;81.91;101428.16;6324446;28;20122;-76
2023/01/24 08:41:07;;;;;;;2.28;1.65;;;;;;;5.93;82.17;101436.91;6325629;28;20039;-72
2023/01/24 08:44:08;;;;;;;1.42;0.93;;;;;;;5.89;82.74;101442.16;6324414;28;20040;-71
2023/01/24 08:47:11;;;;;;;1.38;1.27;;;;;;;6.28;81.34;101440.56;6324009;28;20052;-71
2023/01/24 08:50:15;;;;;;;3.72;1.88;;;;;;;6.57;78.83;101449.41;6324099;28;20047;-72
2023/01/24 08:53:19;;;;;;;3.70;2.13;;;;;;;6.89;77.99;101447.84;6325404;28;20036;-77
2023/01/24 08:56:20;;;;;;;2.72;1.67;;;;;;;7.12;77.52;101452.47;6324045;28;20040;-77
2023/01/24 08:59:21;;;;;;;3.28;1.73;;;;;;;7.12;76.40;101447.28;6324236;28;20051;-77
2023/01/24 09:02:22;;;;;;;2.67;1.73;;;;;;;7.34;74.80;101442.44;6324602;28;20040;-77
2023/01/24 09:05:23;;;;;;;4.00;2.05;;;;;;;7.27;75.97;101454.72;6312832;28;20455;-72
2023/01/24 09:08:24;;;;;;;4.53;1.65;;;;;;;7.23;74.90;101450.50;6324989;28;20495;-77
2023/01/24 09:11:25;;;;;;;2.10;1.35;;;;;;;7.15;75.04;101448.06;6323777;28;20527;-72
2023/01/24 09:14:26;;;;;;;10.53;1.20;;;;;;;7.09;75.97;101450.81;6324875;28;20507;-77
2023/01/24 09:17:27;;;;;;;3.38;1.75;;;;;;;7.09;77.00;101443.03;6323445;28;20044;-72
2023/01/24 09:20:30;;;;;;;2.17;1.38;;;;;;;6.82;77.63;101441.97;6324737;28;20051;-77
2023/01/24 09:23:31;;;;;;;4.63;2.10;;;;;;;6.79;77.25;101439.41;6324056;28;20480;-72
2023/01/24 09:26:34;;;;;;;3.65;1.75;;;;;;;6.71;79.26;101436.16;6323125;28;20043;-71
2023/01/24 09:29:37;;;;;;;2.72;1.83;;;;;;;6.53;81.62;101438.28;6324565;28;20040;-73
2023/01/24 09:32:38;;;;;;;2.10;1.60;;;;;;;6.49;82.26;101431.44;6324431;28;20036;-72
2023/01/24 09:35:39;;;;;;;1.88;1.35;;;;;;;6.40;82.14;101431.63;6323189;28;20114;-73
2023/01/24 09:38:40;;;;;;;3.33;2.15;;;;;;;6.40;83.72;101432.50;6322972;28;20446;-72
2023/01/24 09:42:03;;;;;;;1.55;1.17;;;;;;;6.53;81.38;101433.09;6324198;28;20047;-74
2023/01/24 09:45:07;;;;;;;2.10;1.58;;;;;;;6.69;80.72;101430.13;6315262;28;20028;-77
2023/01/24 09:48:13;;;;;;;6.20;2.17;;;;;;;6.85;80.76;101427.16;6320122;28;20063;-77
2023/01/24 09:51:27;;;;;;;3.38;1.77;;;;;;;6.87;79.90;101429.72;6318656;28;20068;-71
2023/01/24 09:54:48;;;;;;;14.57;1.55;;;;;;;6.96;80.49;101421.72;6297773;28;20039;-77
2023/01/24 09:58:00;;;;;;;4.80;1.45;;;;;;;6.99;80.64;101425.97;6297418;28;20117;-77
2023/01/24 10:01:09;;;;;;;2.03;1.65;;;;;;;7.49;77.67;101433.38;6299241;28;20123;-77
2023/01/24 10:04:15;;;;;;;3.90;1.95;;;;;;;7.34;78.44;101426.84;6319873;28;20483;-77
2023/01/24 10:07:18;;;;;;;3.83;2.35;;;;;;;7.09;80.04;101424.88;6323499;28;20188;-77
2023/01/24 10:10:39;;;;;;;3.65;2.05;;;;;;;7.44;79.36;101428.31;6322355;28;20047;-72
2023/01/24 10:13:53;;;;;;;2.60;1.70;;;;;;;7.31;80.14;101422.59;6322269;28;20040;-77
2023/01/24 10:17:06;;;;;;;3.83;1.58;;;;;;;7.11;79.83;101412.69;6322123;28;20044;-77
2023/01/24 10:20:30;;;;;;;1.83;1.38;;;;;;;7.20;80.20;101417.66;6322125;28;20411;-72
2023/01/24 10:23:34;;;;;;;2.78;1.60;;;;;;;7.18;81.15;101411.66;6323247;28;20085;-72
2023/01/24 10:26:47;;;;;;;3.53;2.05;;;;;;;7.05;80.79;101410.25;6322000;28;20043;-77
2023/01/24 10:29:57;;;;;;;4.35;1.77;;;;;;;7.11;82.22;101402.31;6323169;28;20036;-72
2023/01/24 10:33:03;;;;;;;1.77;1.42;;;;;;;7.12;81.07;101408.34;6322126;28;20122;-77
2023/01/24 10:36:11;;;;;;;3.88;2.78;;;;;;;7.41;81.09;101400.69;6320538;28;20063;-77
2023/01/24 10:39:12;;;;;;;3.88;1.63;;;;;;;7.54;79.99;101400.38;6297773;28;20480;-71
2023/01/24 10:42:22;;;;;;;4.22;1.70;;;;;;;7.80;78.22;101403.09;6296431;28;20086;-77
2023/01/24 10:45:55;;;;;;;3.92;1.55;;;;;;;8.36;78.33;101397.13;6296522;28;20067;-77
2023/01/24 10:48:58;;;;;;;5.32;2.40;;;;;;;8.86;74.69;101393.88;6276401;28;20087;-77
2023/01/24 10:52:17;;;;;;;3.00;1.63;;;;;;;9.16;74.32;101389.41;6302453;28;20083;-77
2023/01/24 10:55:38;;;;;;;1.77;1.17;;;;;;;9.43;71.06;101391.94;6322524;28;20040;-71
2023/01/24 10:58:54;;;;;;;3.58;2.00;;;;;;;9.90;70.94;101384.19;6321094;28;20085;-71
2023/01/24 11:01:59;;;;;;;1.98;1.23;;;;;;;9.80;68.86;101382.81;6303577;28;20040;-73
2023/01/24 11:05:08;;;;;;;2.95;1.70;;;;;;;10.08;71.38;101386.09;6296070;28;20052;-77
2023/01/24 11:08:17;;;;;;;2.47;1.50;;;;;;;9.93;69.02;101375.41;6297073;28;20082;-77
2023/01/24 11:11:27;;;;;;;1.33;1.05;;;;;;;10.07;66.67;101370.53;6295786;28;20040;-77
2023/01/24 11:14:33;;;;;;;2.13;1.50;;;;;;;9.78;67.20;101369.88;6299944;28;20082;-77
2023/01/24 11:17:41;;;;;;;2.03;1.45;;;;;;;10.28;67.38;101367.09;6301657;28;20115;-72
2023/01/24 11:20:44;;;;;;;1.60;1.23;;;;;;;10.18;66.44;101360.53;6296904;28;20481;-78
2023/01/24 11:23:58;;;;;;;2.28;1.42;;;;;;;10.58;66.08;101363.34;6295657;28;20066;-77
2023/01/24 11:27:04;;;;;;;1.92;1.63;;;;;;;10.74;66.21;101356.59;6295412;28;20132;-73
2023/01/24 11:30:05;;;;;;;2.10;1.40;;;;;;;10.45;64.06;101361.22;6295563;28;20049;-72
2023/01/24 11:33:34;;;;;;;2.78;1.52;;;;;;;10.38;64.89;101354.56;6295648;28;20043;-72
2023/01/24 11:37:11;;;;;;;3.05;1.75;;;;;;;10.59;64.40;101350.25;6296606;28;20094;-77
2023/01/24 11:40:19;;;;;;;1.50;1.40;;;;;;;10.70;65.58;101344.59;6296574;28;20040;-77
2023/01/24 11:43:26;;;;;;;4.35;1.77;;;;;;;10.76;66.09;101339.13;6296659;28;20503;-77
2023/01/24 11:46:30;;;;;;;3.30;2.25;;;;;;;11.07;65.76;101340.44;6295189;28;20048;-77
2023/01/24 11:50:02;;;;;;;2.67;1.92;;;;;;;11.24;62.64;101330.13;6296524;28;20044;-77
2023/01/24 11:53:15;;;;;;;3.42;2.00;;;;;;;11.00;63.49;101326.81;6296486;28;20041;-72
2023/01/24 11:56:31;;;;;;;2.50;1.77;;;;;;;11.48;62.12;101328.19;6296343;28;20381;-72
2023/01/24 11:59:54;;;;;;;6.63;2.97;;;;;;;11.20;62.13;101325.97;6295213;28;20043;-72
2023/01/24 12:03:24;;;;;;;3.47;2.33;;;;;;;11.24;65.27;101326.66;6295221;28;20488;-72
2023/01/24 12:06:42;;;;;;;4.90;2.42;;;;;;;11.50;62.13;101320.28;6289654;28;20405;-77
2023/01/24 12:09:52;;;;;;;3.97;2.13;;;;;;;11.55;60.38;101318.31;6303038;28;20043;-72
2023/01/24 12:12:52;;;;;;;3.70;1.98;;;;;;;11.40;59.69;101321.59;6292119;28;20044;-72
2023/01/24 12:16:03;;;;;;;2.85;2.03;;;;;;;11.41;61.86;101321.53;6295038;28;20059;-72
2023/01/24 12:19:27;;;;;;;5.53;2.30;;;;;;;11.16;63.49;101323.53;6295265;28;20032;-72
2023/01/24 12:22:29;;;;;;;2.83;1.92;;;;;;;11.01;61.93;101320.66;6295815;28;20048;-71
2023/01/24 12:25:43;;;;;;;3.13;1.55;;;;;;;11.16;61.23;101323.53;6296334;28;20036;-72
2023/01/24 12:29:13;;;;;;;5.03;2.17;;;;;;;11.29;60.95;101322.94;6296194;28;20127;-77
2023/01/24 12:32:23;;;;;;;1.83;1.38;;;;;;;10.92;60.38;101321.06;6296171;28;20037;-78
2023/01/24 12:35:33;;;;;;;3.60;2.05;;;;;;;11.23;61.13;101330.19;6294996;28;20040;-77
2023/01/24 12:38:41;;;;;;;3.22;1.75;;;;;;;11.15;60.28;101325.28;6295694;28;20134;-78
2023/01/24 12:41:47;;;;;;;6.28;1.90;;;;;;;10.97;60.17;101328.69;6299004;28;20094;-72
2023/01/24 12:45:00;;;;;;;2.10;1.65;;;;;;;10.73;60.91;101325.34;6300668;28;20052;-77
2023/01/24 12:48:08;;;;;;;3.45;1.80;;;;;;;10.75;61.12;101313.94;6300248;28;20504;-72
2023/01/24 12:51:12;;;;;;;3.65;1.88;;;;;;;10.85;62.67;101323.09;6299012;28;20507;-77
2023/01/24 12:54:30;;;;;;;2.28;1.58;;;;;;;10.78;60.97;101323.41;6300477;28;20070;-72
2023/01/24 12:57:49;;;;;;;4.28;1.88;;;;;;;10.81;61.02;101324.13;6299110;28;20040;-77
2023/01/24 13:01:24;;;;;;;3.97;1.83;;;;;;;10.73;62.29;101320.97;6300226;28;20098;-72
2023/01/24 13:04:43;;;;;;;4.72;1.98;;;;;;;10.88;63.58;101322.09;6300189;28;20071;-77
2023/01/24 13:08:13;;;;;;;3.25;1.98;;;;;;;10.66;60.99;101317.75;6298670;28;20049;-71
2023/01/24 13:11:19;;;;;;;1.58;1.20;;;;;;;10.42;61.67;101321.38;6288140;28;20052;-71
2023/01/24 13:14:40;;;;;;;3.10;1.70;;;;;;;10.59;65.37;101315.47;6299986;28;20094;-77
2023/01/24 13:18:01;;;;;;;5.70;1.92;;;;;;;10.69;63.60;101319.41;6298675;28;20036;-72
2023/01/24 13:21:40;;;;;;;4.47;2.13;;;;;;;10.40;63.88;101315.38;6299564;28;20047;-72
2023/01/24 13:24:48;;;;;;;4.85;2.15;;;;;;;10.52;65.90;101317.47;6298298;28;20052;-73
2023/01/24 13:28:08;;;;;;;4.40;2.08;;;;;;;10.47;63.93;101322.03;6298597;28;20064;-71
2023/01/24 13:31:15;;;;;;;2.55;1.92;;;;;;;10.49;64.38;101325.44;6299536;28;20408;-77
2023/01/24 13:34:20;;;;;;;3.83;2.30;;;;;;;10.38;64.82;101312.84;6298342;28;20485;-78
2023/01/24 13:37:28;;;;;;;5.65;2.78;;;;;;;10.53;66.19;101323.56;6299363;28;20559;-78
2023/01/24 13:40:34;;;;;;;4.90;2.55;;;;;;;10.57;65.58;101323.38;6299343;28;20101;-73
2023/01/24 13:43:54;;;;;;;4.07;1.92;;;;;;;10.42;63.78;101318.78;6299389;28;20480;-71
2023/01/24 13:47:06;;;;;;;5.97;2.03;;;;;;;10.31;64.75;101323.56;6297973;28;20106;-77
2023/01/24 13:50:13;;;;;;;3.80;2.00;;;;;;;10.39;66.48;101329.31;6298568;28;20128;-78
2023/01/24 13:53:54;;;;;;;7.93;2.40;;;;;;;10.46;66.80;101331.63;6299014;28;20040;-72
2023/01/24 13:57:13;;;;;;;3.58;1.85;;;;;;;10.55;67.90;101325.19;6297451;28;20048;-78
2023/01/24 14:00:19;;;;;;;4.43;2.25;;;;;;;10.38;66.14;101319.81;6298654;28;20044;-77
2023/01/24 14:03:23;;;;;;;4.53;2.03;;;;;;;10.34;65.72;101329.53;6298698;28;20124;-72
2023/01/24 14:06:26;;;;;;;3.38;2.15;;;;;;;10.14;67.22;101334.63;6297349;28;20048;-71
2023/01/24 14:09:28;;;;;;;5.45;2.17;;;;;;;10.16;66.90;101325.84;6298526;28;20114;-78
2023/01/24 14:12:37;;;;;;;1.90;1.60;;;;;;;10.17;67.41;101337.09;6297197;28;20041;-72
2023/01/24 14:15:41;;;;;;;4.90;1.95;;;;;;;10.17;67.82;101329.28;6297246;28;20116;-73
2023/01/24 14:18:54;;;;;;;3.65;1.77;;;;;;;9.94;67.76;101324.97;6298260;28;20098;-72
2023/01/24 14:22:04;;;;;;;3.67;1.98;;;;;;;9.84;70.17;101330.53;6297153;28;20040;-77
2023/01/24 14:25:41;;;;;;;3.10;1.80;;;;;;;9.75;71.80;101324.81;6296864;28;20044;-72
2023/01/24 14:28:49;;;;;;;2.53;1.85;;;;;;;9.39;71.76;101326.09;6296805;28;20411;-72
2023/01/24 14:31:55;;;;;;;5.72;2.50;;;;;;;9.32;72.45;101334.19;6297924;28;20078;-72
2023/01/24 14:35:18;;;;;;;4.75;2.35;;;;;;;9.19;72.13;101336.38;6296683;28;20044;-77
2023/01/24 14:38:19;;;;;;;2.75;2.00;;;;;;;9.12;73.29;101335.75;6296561;28;20036;-71
2023/01/24 14:41:24;;;;;;;3.88;2.17;;;;;;;9.02;74.41;101337.81;6297531;28;20102;-78
2023/01/24 14:44:28;;;;;;;6.38;2.78;;;;;;;8.84;74.47;101347.06;6297824;28;20051;-78
2023/01/24 14:47:29;;;;;;;4.32;2.58;;;;;;;8.85;76.45;101347.91;6297389;28;20053;-73
2023/01/24 14:50:34;;;;;;;7.63;3.20;;;;;;;8.63;77.81;101350.38;6296288;28;20117;-72
2023/01/24 14:53:36;;;;;;;5.32;3.25;;;;;;;8.47;80.50;101350.84;6296294;28;20044;-78
2023/01/24 14:56:39;;;;;;;10.52;4.47;;;;;;;8.39;81.55;101355.41;6297482;28;20110;-77
2023/01/24 14:59:40;;;;;;;10.73;4.15;;;;;;;8.23;82.72;101354.19;6296202;28;20044;-77
2023/01/24 15:02:59;;;;;;;9.30;4.78;;;;;;;8.21;82.99;101354.22;6296749;28;20388;-72
2023/01/24 15:06:06;;;;;;;8.48;4.18;;;;;;;8.11;83.66;101346.75;6296146;28;20115;-73